Time;durP1;ratioP1;P1;durP2;ratioP2;P2;SDS_P1;SDS_P2;PMS_P1;PMS_P2;Temp;Humidity;BMP_temperature;BMP_pressure;BME280_temperature;BME280_humidity;BME280_pressure;Samples;Min_cycle;Max_cycle;Signal;HPM_P1;HPM_P2
2023/01/16 00:01:46;;;;;;;28.88;19.15;;;;;;;1.96;100.00;92995.00;5060616;28;20102;-71
2023/01/16 00:04:12;;;;;;;18.33;12.23;;;;;;;1.88;100.00;92984.88;5071912;28;20094;-71
2023/01/16 00:06:40;;;;;;;16.58;12.25;;;;;;;1.88;100.00;92982.31;5071378;28;20511;-71
2023/01/16 00:09:07;;;;;;;23.75;13.68;;;;;;;1.86;100.00;92971.59;5071036;28;20051;-71
2023/01/16 00:11:34;;;;;;;22.05;13.93;;;;;;;1.85;100.00;92975.84;5071566;28;20052;-71
2023/01/16 00:14:01;;;;;;;23.73;14.90;;;;;;;1.84;100.00;92971.75;5071367;28;20049;-71
2023/01/16 00:16:29;;;;;;;21.85;13.48;;;;;;;1.85;100.00;92964.94;5071804;28;20045;-71
2023/01/16 00:18:56;;;;;;;23.00;13.00;;;;;;;1.82;100.00;92960.19;5070974;28;20042;-71
2023/01/16 00:21:25;;;;;;;22.38;14.27;;;;;;;1.78;100.00;92966.53;5071238;28;20052;-71
2023/01/16 00:23:52;;;;;;;22.75;13.75;;;;;;;1.81;100.00;92963.69;5071456;28;20047;-71
2023/01/16 00:26:19;;;;;;;21.58;14.18;;;;;;;1.76;100.00;92971.75;5071056;28;20044;-71
2023/01/16 00:28:46;;;;;;;23.67;14.82;;;;;;;1.82;100.00;92965.25;5070684;28;20098;-71
2023/01/16 00:31:13;;;;;;;21.38;13.25;;;;;;;1.79;100.00;92960.50;5071083;28;20048;-71
2023/01/16 00:33:42;;;;;;;19.35;13.80;;;;;;;1.77;100.00;92963.22;5069646;28;20090;-71
2023/01/16 00:36:09;;;;;;;20.95;13.57;;;;;;;1.69;100.00;92943.75;5070812;28;20339;-71
2023/01/16 00:38:36;;;;;;;21.67;12.95;;;;;;;1.75;100.00;92956.72;5070821;28;20045;-71
2023/01/16 00:41:04;;;;;;;23.63;15.63;;;;;;;1.72;100.00;92951.03;5070657;28;20059;-71
2023/01/16 00:43:31;;;;;;;23.85;14.00;;;;;;;1.81;100.00;92951.78;5070611;28;20463;-71
2023/01/16 00:45:57;;;;;;;20.23;13.40;;;;;;;1.78;100.00;92941.19;5071131;28;20539;-71
2023/01/16 00:48:24;;;;;;;20.17;13.57;;;;;;;1.83;100.00;92951.63;5070484;28;20102;-71
2023/01/16 00:50:53;;;;;;;19.40;12.98;;;;;;;1.86;100.00;92946.25;5070540;28;20040;-71
2023/01/16 00:53:19;;;;;;;20.85;13.90;;;;;;;1.93;100.00;92948.91;5053892;28;20049;-71
2023/01/16 00:55:46;;;;;;;21.48;14.15;;;;;;;1.91;100.00;92945.75;5050558;28;20043;-71
2023/01/16 00:58:13;;;;;;;18.90;12.80;;;;;;;1.95;100.00;92949.56;5050492;28;20052;-71
2023/01/16 01:00:40;;;;;;;19.60;13.35;;;;;;;1.94;100.00;92946.22;5056228;28;20110;-71
2023/01/16 01:03:06;;;;;;;17.80;12.38;;;;;;;1.95;100.00;92950.31;5069452;28;20094;-71
2023/01/16 01:05:37;;;;;;;19.17;14.00;;;;;;;1.97;100.00;92947.63;5070700;28;20118;-71
2023/01/16 01:08:05;;;;;;;21.25;13.70;;;;;;;1.97;100.00;92953.50;5057485;28;20049;-71
2023/01/16 01:10:32;;;;;;;19.00;13.15;;;;;;;1.97;100.00;92945.09;5070500;28;20052;-71
2023/01/16 01:12:59;;;;;;;18.55;12.15;;;;;;;1.80;100.00;92927.41;5057600;28;20053;-71
2023/01/16 01:15:28;;;;;;;18.17;12.90;;;;;;;1.84;100.00;92941.34;5066452;28;20049;-71
2023/01/16 01:17:55;;;;;;;18.10;14.25;;;;;;;1.85;100.00;92940.38;5060938;28;20501;-71
2023/01/16 01:20:22;;;;;;;22.42;14.50;;;;;;;1.81;100.00;92943.41;5056686;28;20102;-71
2023/01/16 01:22:48;;;;;;;23.17;14.38;;;;;;;1.77;100.00;92929.50;5060019;28;20045;-71
2023/01/16 01:25:17;;;;;;;25.67;17.02;;;;;;;1.75;100.00;92926.34;5060837;28;20049;-71
2023/01/16 01:27:43;;;;;;;24.35;15.45;;;;;;;1.70;100.00;92936.94;5057155;28;20041;-71
2023/01/16 01:30:11;;;;;;;19.77;13.48;;;;;;;1.71;100.00;92936.78;5059143;28;20049;-70
2023/01/16 01:32:38;;;;;;;23.00;15.50;;;;;;;1.68;100.00;92933.78;5059044;28;20041;-70
2023/01/16 01:35:06;;;;;;;20.73;13.18;;;;;;;1.70;100.00;92930.16;5061386;28;20562;-70
2023/01/16 01:37:33;;;;;;;18.42;12.82;;;;;;;1.55;100.00;92901.38;5069716;28;20052;-71
2023/01/16 01:40:00;;;;;;;22.23;14.73;;;;;;;1.65;100.00;92918.91;5069153;28;20059;-70
2023/01/16 01:42:45;;;;;;;20.17;13.30;;;;;;;1.69;100.00;92912.56;5069315;28;20040;-71
2023/01/16 01:45:18;;;;;;;21.75;15.07;;;;;;;1.65;100.00;92904.50;5069226;28;20056;-70
2023/01/16 01:47:51;;;;;;;17.85;11.93;;;;;;;1.63;100.00;92903.91;5069426;28;20045;-70
2023/01/16 01:50:26;;;;;;;17.02;11.38;;;;;;;1.64;100.00;92902.13;5069222;28;20048;-70
2023/01/16 01:52:53;;;;;;;28.95;18.05;;;;;;;1.58;100.00;92904.38;5069405;28;20040;-70
2023/01/16 01:55:22;;;;;;;18.13;11.45;;;;;;;1.61;100.00;92900.72;5068802;28;20094;-70
2023/01/16 01:57:56;;;;;;;20.65;12.85;;;;;;;1.64;100.00;92894.53;5068996;28;20052;-70
2023/01/16 02:00:25;;;;;;;20.13;12.80;;;;;;;1.42;100.00;92862.19;5069428;28;20048;-69
2023/01/16 02:02:56;;;;;;;20.02;12.90;;;;;;;1.64;100.00;92894.53;5069240;28;20044;-69
2023/01/16 02:05:29;;;;;;;18.50;11.73;;;;;;;1.58;100.00;92889.19;5068792;28;20534;-70
2023/01/16 02:07:56;;;;;;;21.58;14.30;;;;;;;1.58;100.00;92889.19;5069133;28;20109;-69
2023/01/16 02:10:32;;;;;;;21.70;14.68;;;;;;;1.60;100.00;92887.28;5068603;28;20053;-69
2023/01/16 02:13:01;;;;;;;22.52;15.35;;;;;;;1.59;100.00;92880.63;5068930;28;20052;-69
2023/01/16 02:15:28;;;;;;;20.23;13.77;;;;;;;1.58;100.00;92878.28;5069131;28;20459;-71
2023/01/16 02:20:51;;;;;;;21.58;14.52;;;;;;;1.58;100.00;92868.16;5068712;28;20166;-71
2023/01/16 02:24:03;;;;;;;22.75;14.80;;;;;;;1.55;100.00;92864.19;5069006;28;20048;-71
2023/01/16 02:26:50;;;;;;;22.67;14.20;;;;;;;1.52;100.00;92856.91;5032736;28;20106;-70
2023/01/16 02:29:41;;;;;;;21.50;13.75;;;;;;;1.57;100.00;92867.34;5068439;28;20165;-70
2023/01/16 02:32:23;;;;;;;22.15;14.98;;;;;;;1.57;100.00;92874.16;5052011;28;20094;-70
2023/01/16 02:35:07;;;;;;;21.20;14.48;;;;;;;1.59;100.00;92867.19;5068435;28;20045;-70
2023/01/16 02:37:44;;;;;;;21.08;13.93;;;;;;;1.62;100.00;92866.06;5068874;28;20041;-70
2023/01/16 02:40:22;;;;;;;22.35;14.38;;;;;;;1.57;100.00;92851.38;5068884;28;20040;-70
2023/01/16 02:42:59;;;;;;;18.92;12.93;;;;;;;1.60;100.00;92851.03;5068494;28;20045;-70
2023/01/16 02:45:32;;;;;;;21.35;13.20;;;;;;;1.53;100.00;92845.06;5068864;28;20165;-70
2023/01/16 02:48:09;;;;;;;19.30;12.98;;;;;;;1.52;100.00;92844.25;5068504;28;20553;-70
2023/01/16 02:50:45;;;;;;;20.42;12.05;;;;;;;1.55;100.00;92850.75;5068324;28;20550;-70
2023/01/16 02:53:17;;;;;;;17.95;12.38;;;;;;;1.50;100.00;92838.59;5068937;28;20099;-70
2023/01/16 02:55:47;;;;;;;20.17;12.82;;;;;;;1.52;100.00;92835.91;5068610;28;20095;-70
2023/01/16 02:58:16;;;;;;;17.08;12.20;;;;;;;1.53;100.00;92835.72;5071151;28;20045;-70
2023/01/16 03:00:50;;;;;;;19.73;12.18;;;;;;;1.52;100.00;92844.25;5072558;28;20048;-70
2023/01/16 03:03:37;;;;;;;17.65;12.45;;;;;;;1.58;100.00;92830.94;5072061;28;20536;-70
2023/01/16 03:06:16;;;;;;;17.38;12.13;;;;;;;1.57;100.00;92821.78;5072707;28;20078;-70
2023/01/16 03:08:51;;;;;;;16.80;12.27;;;;;;;1.58;100.00;92818.28;5072338;28;20049;-71
2023/01/16 03:11:24;;;;;;;16.77;11.98;;;;;;;1.56;100.00;92821.94;5072548;28;20114;-71
2023/01/16 03:14:11;;;;;;;20.10;12.13;;;;;;;1.41;100.00;92792.28;5072197;28;20508;-71
2023/01/16 03:16:46;;;;;;;17.85;12.30;;;;;;;1.64;100.00;92826.19;5072065;28;20102;-70
2023/01/16 03:19:25;;;;;;;18.73;12.15;;;;;;;1.62;100.00;92811.16;5072337;28;20067;-70
2023/01/16 03:22:08;;;;;;;18.92;12.52;;;;;;;1.64;100.00;92811.00;5072258;28;20420;-70
2023/01/16 03:24:45;;;;;;;21.50;12.73;;;;;;;1.63;100.00;92804.34;5071966;28;20489;-70
2023/01/16 03:27:23;;;;;;;21.58;12.98;;;;;;;1.63;100.00;92809.41;5072140;28;20036;-70
2023/01/16 03:29:56;;;;;;;19.42;13.32;;;;;;;1.58;100.00;92798.03;5071650;28;20048;-70
2023/01/16 03:32:33;;;;;;;23.77;14.02;;;;;;;1.59;100.00;92793.78;5072180;28;20044;-70
2023/01/16 03:35:04;;;;;;;21.15;14.90;;;;;;;1.61;100.00;92781.72;5071765;28;20044;-70
2023/01/16 03:37:40;;;;;;;19.40;12.63;;;;;;;1.59;100.00;92773.53;5071739;28;20512;-70
2023/01/16 03:40:09;;;;;;;17.85;11.70;;;;;;;1.56;100.00;92777.16;5071632;28;20040;-70
2023/01/16 03:42:41;;;;;;;15.55;11.52;;;;;;;1.55;100.00;92764.69;5071643;28;20040;-70
2023/01/16 03:45:15;;;;;;;17.83;12.50;;;;;;;1.56;100.00;92771.31;5071877;28;20455;-71
2023/01/16 03:47:51;;;;;;;17.58;13.25;;;;;;;1.51;100.00;92769.28;5071320;28;20051;-70
2023/01/16 03:50:21;;;;;;;20.77;13.00;;;;;;;1.56;100.00;92771.31;5071646;28;20048;-71
2023/01/16 03:52:54;;;;;;;16.98;11.35;;;;;;;1.55;100.00;92777.34;5071669;28;20467;-70
2023/01/16 03:55:27;;;;;;;16.85;11.15;;;;;;;1.52;100.00;92778.44;5071642;28;20109;-70
2023/01/16 03:57:59;;;;;;;20.27;11.57;;;;;;;1.50;100.00;92766.91;5071294;28;20095;-70
2023/01/16 04:00:35;;;;;;;15.88;11.05;;;;;;;1.51;100.00;92773.53;5071209;28;20045;-70
2023/01/16 04:03:08;;;;;;;16.77;11.55;;;;;;;1.50;100.00;92771.97;5070906;28;20492;-70
2023/01/16 04:05:42;;;;;;;17.25;11.63;;;;;;;1.39;100.00;92771.38;5071504;28;20048;-70
2023/01/16 04:08:15;;;;;;;13.80;10.90;;;;;;;1.42;100.00;92762.66;5071323;28;21516;-70
2023/01/16 04:10:46;;;;;;;14.52;10.73;;;;;;;1.42;100.00;92755.88;5071035;28;20040;-70
2023/01/16 04:13:16;;;;;;;17.20;11.60;;;;;;;1.38;100.00;92754.63;5071093;28;20502;-70
2023/01/16 04:15:48;;;;;;;16.88;11.35;;;;;;;1.34;100.00;92748.31;5071459;28;20040;-70
2023/01/16 04:18:15;;;;;;;18.95;12.07;;;;;;;1.31;100.00;92751.94;5071215;28;20439;-70
2023/01/16 04:23:32;;;;;;;16.67;11.82;;;;;;;1.30;100.00;92749.59;5071020;28;20661;-70
2023/01/16 04:25:59;;;;;;;19.33;11.65;;;;;;;1.29;100.00;92750.56;5070670;28;20110;-70
2023/01/16 04:28:26;;;;;;;15.45;11.00;;;;;;;1.32;100.00;92747.69;5071038;28;20040;-69
2023/01/16 04:30:52;;;;;;;16.58;10.80;;;;;;;1.28;100.00;92737.13;5070809;28;20401;-70
2023/01/16 04:33:19;;;;;;;18.35;10.98;;;;;;;1.34;100.00;92745.78;5070351;28;20051;-71
2023/01/16 04:35:47;;;;;;;16.42;10.40;;;;;;;1.27;100.00;92732.22;5070791;28;20131;-71
2023/01/16 04:38:14;;;;;;;15.55;11.45;;;;;;;1.19;100.00;92712.78;5070863;28;20044;-71
2023/01/16 04:40:41;;;;;;;17.48;12.23;;;;;;;1.34;100.00;92735.66;5070269;28;20041;-70
2023/01/16 04:43:08;;;;;;;14.27;10.27;;;;;;;1.13;100.00;92709.19;5070449;28;20045;-70
2023/01/16 04:45:34;;;;;;;14.75;10.57;;;;;;;1.36;100.00;92740.56;5070729;28;20044;-70
2023/01/16 04:48:01;;;;;;;15.07;10.77;;;;;;;1.38;100.00;92736.91;5070415;28;20451;-70
2023/01/16 04:50:28;;;;;;;13.98;9.93;;;;;;;1.37;100.00;92732.81;5070511;28;20040;-70
2023/01/16 04:52:56;;;;;;;18.42;11.95;;;;;;;1.35;100.00;92733.91;5070282;28;20048;-70
2023/01/16 04:55:22;;;;;;;21.70;11.98;;;;;;;1.37;100.00;92737.88;5070299;28;20102;-71
2023/01/16 04:57:49;;;;;;;16.40;11.40;;;;;;;1.30;100.00;92720.00;5070320;28;20118;-70
2023/01/16 05:00:17;;;;;;;19.45;12.48;;;;;;;1.36;100.00;92732.97;5070145;28;20091;-70
2023/01/16 05:02:43;;;;;;;18.40;11.82;;;;;;;1.39;100.00;92740.25;5070292;28;20094;-70
2023/01/16 05:05:10;;;;;;;19.35;11.38;;;;;;;1.38;100.00;92738.66;5070346;28;20408;-70
2023/01/16 05:07:37;;;;;;;15.90;10.63;;;;;;;1.28;100.00;92719.41;5070224;28;20123;-70
2023/01/16 05:10:06;;;;;;;17.70;11.57;;;;;;;1.36;100.00;92727.91;5070090;28;20093;-70
2023/01/16 05:12:33;;;;;;;17.10;11.27;;;;;;;1.41;100.00;92728.19;5070194;28;20044;-70
2023/01/16 05:14:59;;;;;;;17.35;11.60;;;;;;;1.41;100.00;92730.72;5069669;28;20056;-70
2023/01/16 05:17:26;;;;;;;15.77;11.10;;;;;;;1.39;100.00;92730.88;5069719;28;20036;-70
2023/01/16 05:19:53;;;;;;;16.30;11.25;;;;;;;1.39;100.00;92722.53;5068833;28;20048;-70
2023/01/16 05:22:20;;;;;;;16.55;11.27;;;;;;;1.38;100.00;92711.59;5069434;28;20048;-70
2023/01/16 05:24:47;;;;;;;18.48;11.82;;;;;;;1.41;100.00;92710.47;5069740;28;20553;-69
2023/01/16 05:27:15;;;;;;;14.93;10.80;;;;;;;1.37;100.00;92696.56;5069914;28;20079;-70
2023/01/16 05:29:41;;;;;;;15.65;10.15;;;;;;;1.38;100.00;92698.19;5069489;28;20110;-69
2023/01/16 05:32:08;;;;;;;14.20;10.38;;;;;;;1.42;100.00;92699.41;5069666;28;20048;-70
2023/01/16 05:34:35;;;;;;;15.57;10.32;;;;;;;1.49;100.00;92704.59;5069767;28;20040;-70
2023/01/16 05:37:01;;;;;;;16.00;10.90;;;;;;;1.52;100.00;92706.81;5069169;28;20041;-70
2023/01/16 05:39:28;;;;;;;16.30;12.02;;;;;;;1.49;100.00;92717.25;5063612;28;20118;-70
2023/01/16 05:41:55;;;;;;;16.85;11.30;;;;;;;1.51;100.00;92708.53;5047145;28;20098;-70
2023/01/16 05:44:23;;;;;;;18.92;12.02;;;;;;;1.57;100.00;92714.69;5048550;28;20110;-70
2023/01/16 05:46:50;;;;;;;15.68;11.65;;;;;;;1.54;100.00;92709.94;5049651;28;20409;-70
2023/01/16 05:49:17;;;;;;;15.73;10.90;;;;;;;1.58;100.00;92706.13;5049533;28;20087;-70
2023/01/16 05:51:44;;;;;;;14.27;11.23;;;;;;;1.59;100.00;92707.69;5049418;28;20082;-70
2023/01/16 05:54:11;;;;;;;12.73;9.70;;;;;;;1.57;100.00;92717.22;5049414;28;20095;-69
2023/01/16 05:56:38;;;;;;;14.48;9.80;;;;;;;1.56;100.00;92703.75;5049214;28;20158;-69
2023/01/16 05:59:05;;;;;;;12.93;9.00;;;;;;;1.57;100.00;92699.50;5049159;28;20155;-69
2023/01/16 06:01:33;;;;;;;13.43;9.43;;;;;;;1.58;100.00;92693.47;5049298;28;20044;-69
2023/01/16 06:04:00;;;;;;;13.10;9.32;;;;;;;1.53;100.00;92693.19;5049011;28;20464;-70
2023/01/16 06:06:26;;;;;;;11.85;8.40;;;;;;;1.49;100.00;92691.94;5049229;28;20049;-70
2023/01/16 06:08:53;;;;;;;14.48;9.18;;;;;;;1.44;100.00;92687.38;5048855;28;20037;-70
2023/01/16 06:11:20;;;;;;;19.65;9.32;;;;;;;1.23;100.00;92660.91;5048834;28;20452;-70
2023/01/16 06:13:47;;;;;;;16.42;9.55;;;;;;;1.42;100.00;92690.06;5049076;28;20091;-70
2023/01/16 06:16:14;;;;;;;18.10;11.68;;;;;;;1.45;100.00;92689.72;5049352;28;20049;-70
2023/01/16 06:18:42;;;;;;;18.85;11.45;;;;;;;1.49;100.00;92705.38;5048531;28;20489;-70
2023/01/16 06:21:09;;;;;;;17.88;10.73;;;;;;;1.52;100.00;92707.56;5048983;28;20041;-70
2023/01/16 06:23:35;;;;;;;19.45;11.50;;;;;;;1.44;100.00;92694.97;5048953;28;20044;-70
2023/01/16 06:26:05;;;;;;;19.40;12.10;;;;;;;1.54;100.00;92704.88;5048709;28;20041;-70
2023/01/16 06:28:32;;;;;;;19.92;12.77;;;;;;;1.52;100.00;92719.47;5051148;28;20041;-70
2023/01/16 06:30:59;;;;;;;21.25;13.13;;;;;;;1.58;100.00;92706.13;5068312;28;20049;-70
2023/01/16 06:33:25;;;;;;;19.85;13.40;;;;;;;1.56;100.00;92698.69;5068550;28;20045;-70
2023/01/16 06:35:53;;;;;;;18.50;12.98;;;;;;;1.51;100.00;92682.41;5068571;28;20044;-69
2023/01/16 06:38:20;;;;;;;21.70;12.65;;;;;;;1.40;100.00;92654.03;5068762;28;20040;-69
2023/01/16 06:40:47;;;;;;;17.38;11.77;;;;;;;1.53;100.00;92667.88;5068799;28;20086;-69
2023/01/16 06:43:15;;;;;;;15.82;10.27;;;;;;;1.54;100.00;92674.50;5068792;28;20036;-70
2023/01/16 06:45:42;;;;;;;21.65;11.93;;;;;;;1.57;100.00;92680.03;5068523;28;20043;-70
2023/01/16 06:48:08;;;;;;;17.50;11.35;;;;;;;1.63;100.00;92672.72;5068739;28;20041;-69
2023/01/16 06:50:35;;;;;;;19.20;12.15;;;;;;;1.70;100.00;92683.72;5068653;28;20075;-70
2023/01/16 06:53:03;;;;;;;17.60;11.23;;;;;;;1.74;100.00;92674.84;5068177;28;20044;-70
2023/01/16 06:55:30;;;;;;;17.90;10.50;;;;;;;1.81;100.00;92670.69;5068496;28;20044;-70
2023/01/16 06:57:57;;;;;;;20.60;11.82;;;;;;;1.90;100.00;92679.00;5068487;28;20056;-70
2023/01/16 07:00:24;;;;;;;17.98;11.23;;;;;;;1.98;100.00;92689.09;5068404;28;20098;-70
2023/01/16 07:02:54;;;;;;;19.27;12.38;;;;;;;2.06;100.00;92690.78;5068603;28;20044;-70
2023/01/16 07:05:21;;;;;;;18.30;12.35;;;;;;;2.14;100.00;92697.53;5068200;28;21180;-70
2023/01/16 07:07:49;;;;;;;17.95;11.50;;;;;;;2.10;100.00;92676.81;5068543;28;20098;-70
2023/01/16 07:10:20;;;;;;;18.77;12.60;;;;;;;2.24;100.00;92680.34;5063134;28;20049;-69
2023/01/16 07:12:47;;;;;;;17.70;11.98;;;;;;;2.32;100.00;92688.84;5045975;28;20092;-71
2023/01/16 07:23:29;;;;;;;21.55;12.77;;;;;;;2.67;100.00;92687.41;5017086;28;20052;-70
2023/01/16 07:26:00;;;;;;;17.77;11.25;;;;;;;2.73;100.00;92685.91;5048080;28;20493;-70
2023/01/16 07:28:27;;;;;;;17.88;11.20;;;;;;;2.66;100.00;92677.41;5049823;28;20057;-70
2023/01/16 07:30:55;;;;;;;18.10;11.73;;;;;;;2.69;100.00;92679.63;5068502;28;20048;-70
2023/01/16 07:33:21;;;;;;;18.10;11.55;;;;;;;2.68;100.00;92680.56;5068128;28;20041;-69
2023/01/16 07:35:48;;;;;;;16.17;10.95;;;;;;;2.73;100.00;92688.44;5067999;28;20041;-69
2023/01/16 07:38:15;;;;;;;18.65;11.73;;;;;;;2.77;100.00;92691.41;5068243;28;20102;-70
2023/01/16 07:40:42;;;;;;;17.05;12.20;;;;;;;2.78;100.00;92683.63;5067784;28;20040;-70
2023/01/16 07:43:10;;;;;;;16.83;11.23;;;;;;;2.79;100.00;92672.50;5069055;28;20102;-70
2023/01/16 07:45:36;;;;;;;18.58;11.75;;;;;;;2.76;100.00;92657.66;5071848;28;20045;-70
2023/01/16 07:48:03;;;;;;;15.75;10.07;;;;;;;2.74;100.00;92651.97;5071733;28;20118;-70
2023/01/16 07:50:31;;;;;;;13.23;9.60;;;;;;;2.78;100.00;92657.50;5071551;28;20040;-70
2023/01/16 07:52:57;;;;;;;18.58;10.90;;;;;;;2.76;100.00;92637.38;5071451;28;20127;-70
2023/01/16 07:55:25;;;;;;;16.35;9.65;;;;;;;2.84;100.00;92641.56;5071689;28;20044;-70
2023/01/16 07:57:51;;;;;;;18.27;10.20;;;;;;;2.88;100.00;92647.84;5071382;28;20048;-70
2023/01/16 08:00:20;;;;;;;16.90;10.00;;;;;;;2.97;100.00;92651.09;5071749;28;20535;-70
2023/01/16 08:02:47;;;;;;;17.95;11.40;;;;;;;3.06;100.00;92657.63;5071846;28;20102;-70
2023/01/16 08:05:13;;;;;;;15.50;10.82;;;;;;;3.10;100.00;92654.75;5071505;28;20044;-70
2023/01/16 08:07:40;;;;;;;13.88;9.10;;;;;;;3.11;100.00;92646.16;5071428;28;20048;-70
2023/01/16 08:10:07;;;;;;;14.90;10.52;;;;;;;3.17;100.00;92648.78;5071362;28;20049;-70
2023/01/16 08:12:34;;;;;;;14.57;10.00;;;;;;;3.16;100.00;92651.50;5071264;28;20057;-70
2023/01/16 08:15:01;;;;;;;15.18;10.13;;;;;;;3.12;100.00;92648.53;5071524;28;20048;-70
2023/01/16 08:17:29;;;;;;;16.15;10.80;;;;;;;3.17;100.00;92656.41;5071495;28;20044;-69
2023/01/16 08:19:56;;;;;;;16.80;11.23;;;;;;;3.17;100.00;92668.28;5071689;28;20048;-70
2023/01/16 08:22:23;;;;;;;23.08;11.85;;;;;;;3.18;100.00;92663.06;5070882;28;20909;-70
2023/01/16 08:24:49;;;;;;;16.80;10.13;;;;;;;3.27;100.00;92657.84;5071315;28;20531;-70
2023/01/16 08:27:16;;;;;;;16.08;10.02;;;;;;;3.34;100.00;92659.50;5070569;28;20118;-69
2023/01/16 08:29:43;;;;;;;13.75;9.80;;;;;;;3.39;100.00;92653.91;5071296;28;20114;-69
2023/01/16 08:32:10;;;;;;;16.23;9.85;;;;;;;3.47;100.00;92647.91;5071038;28;20052;-70
2023/01/16 08:34:38;;;;;;;13.32;9.35;;;;;;;3.48;100.00;92641.88;5070933;28;20050;-70
2023/01/16 08:37:06;;;;;;;14.60;9.50;;;;;;;3.52;100.00;92644.84;5070990;28;20569;-70
2023/01/16 08:39:32;;;;;;;14.98;10.35;;;;;;;3.56;100.00;92638.44;5071050;28;20050;-70
2023/01/16 08:53:00;;;;;;;18.90;11.95;;;;;;;3.91;100.00;92620.78;5061472;28;20523;-69
2023/01/16 08:55:26;;;;;;;20.08;11.82;;;;;;;3.92;100.00;92619.81;5052206;28;20040;-70
2023/01/16 08:57:53;;;;;;;14.80;9.95;;;;;;;3.97;100.00;92624.31;5057989;28;20052;-69
2023/01/16 09:00:21;;;;;;;16.80;10.20;;;;;;;3.96;100.00;92627.84;5070149;28;20045;-70
2023/01/16 09:02:48;;;;;;;17.55;10.50;;;;;;;4.05;100.00;92626.75;5070137;28;20048;-70
2023/01/16 09:05:16;;;;;;;15.80;10.32;;;;;;;4.10;100.00;92621.91;5070529;28;20060;-70
2023/01/16 09:07:42;;;;;;;15.68;10.43;;;;;;;4.22;100.00;92623.94;5070206;28;20105;-69
2023/01/16 09:10:11;;;;;;;14.57;9.75;;;;;;;4.30;100.00;92623.78;5070820;28;20045;-69
2023/01/16 09:15:22;;;;;;;13.75;8.63;;;;;;;4.26;100.00;92613.22;5070208;28;20063;-70
2023/01/16 09:17:48;;;;;;;16.20;9.18;;;;;;;4.34;100.00;92612.28;5070593;28;20045;-69
2023/01/16 09:20:17;;;;;;;14.60;9.52;;;;;;;4.36;100.00;92601.94;5070496;28;20427;-69
2023/01/16 09:22:44;;;;;;;14.10;9.57;;;;;;;4.37;100.00;92598.41;5069927;28;20485;-69
2023/01/16 09:25:11;;;;;;;12.45;8.65;;;;;;;4.39;100.00;92574.38;5069885;28;20086;-69
2023/01/16 09:27:37;;;;;;;14.38;9.68;;;;;;;4.62;100.00;92588.56;5069802;28;20044;-69
2023/01/16 09:30:05;;;;;;;14.70;9.82;;;;;;;4.75;100.00;92581.97;5070199;28;20052;-69
2023/01/16 09:32:33;;;;;;;13.30;8.45;;;;;;;4.76;100.00;92571.59;5069985;28;20048;-69
2023/01/16 09:35:00;;;;;;;11.23;8.52;;;;;;;4.80;100.00;92574.56;5069405;28;20538;-69
2023/01/16 09:37:28;;;;;;;15.25;8.63;;;;;;;4.85;100.00;92564.59;5069839;28;20094;-70
2023/01/16 09:39:55;;;;;;;12.45;8.70;;;;;;;4.78;100.00;92567.09;5056296;28;20460;-69
2023/01/16 09:45:32;;;;;;;15.95;10.07;;;;;;;4.75;100.00;92564.97;5069773;28;20174;-70
2023/01/16 09:48:04;;;;;;;14.50;9.95;;;;;;;4.73;100.00;92561.03;5069563;28;20048;-69
2023/01/16 09:50:36;;;;;;;12.82;9.30;;;;;;;4.63;100.00;92556.31;5069644;28;20072;-70
2023/01/16 09:58:44;;;;;;;15.63;9.20;;;;;;;4.79;100.00;92545.00;5048249;28;20428;-70
2023/01/16 10:01:15;;;;;;;13.35;9.52;;;;;;;4.89;100.00;92547.19;5069231;28;20044;-70
2023/01/16 10:03:42;;;;;;;16.52;10.88;;;;;;;4.96;100.00;92535.28;5069193;28;20044;-70
2023/01/16 10:06:24;;;;;;;14.88;10.95;;;;;;;5.06;100.00;92528.03;5069057;28;20068;-69
2023/01/16 10:09:06;;;;;;;16.20;9.85;;;;;;;4.98;100.00;92501.97;5069397;28;20048;-70
2023/01/16 10:11:40;;;;;;;15.68;10.13;;;;;;;5.03;100.00;92482.63;5068858;28;20040;-70
2023/01/16 10:14:24;;;;;;;13.88;9.15;;;;;;;5.25;100.00;92514.75;5059176;28;20049;-69
2023/01/16 10:17:11;;;;;;;14.70;10.35;;;;;;;5.29;100.00;92516.75;5064897;28;20428;-70
2023/01/16 10:19:56;;;;;;;18.17;11.13;;;;;;;5.44;100.00;92508.91;5069476;28;20056;-70
2023/01/16 10:22:34;;;;;;;16.80;10.27;;;;;;;5.52;100.00;92500.31;5065572;28;20036;-70
2023/01/16 10:25:16;;;;;;;16.92;10.55;;;;;;;5.52;100.00;92490.09;5069218;28;20471;-70
2023/01/16 10:27:53;;;;;;;16.65;11.00;;;;;;;5.59;100.00;92495.97;5044703;28;20040;-70
2023/01/16 10:30:24;;;;;;;16.70;10.60;;;;;;;5.64;100.00;92499.72;5068874;28;20052;-70
2023/01/16 10:32:56;;;;;;;18.30;11.45;;;;;;;5.70;100.00;92488.72;5069315;28;20082;-70
2023/01/16 10:35:26;;;;;;;15.95;10.25;;;;;;;5.77;100.00;92484.41;5068903;28;20089;-70
2023/01/16 10:37:56;;;;;;;16.38;9.07;;;;;;;5.74;100.00;92477.94;5069070;28;20082;-70
2023/01/16 10:40:28;;;;;;;17.88;11.48;;;;;;;5.76;100.00;92477.75;5069159;28;20045;-70
2023/01/16 10:51:17;;;;;;;19.15;11.13;;;;;;;5.91;100.00;92446.13;5061567;28;20051;-69
2023/01/16 10:53:44;;;;;;;17.05;9.68;;;;;;;5.89;100.00;92434.38;5068755;28;20049;-70
2023/01/16 10:56:12;;;;;;;10.68;8.68;;;;;;;5.96;100.00;92431.03;5069070;28;20044;-69
2023/01/16 10:58:41;;;;;;;26.25;12.82;;;;;;;5.87;100.00;92399.88;5068602;28;20049;-70
2023/01/16 11:01:12;;;;;;;18.70;10.07;;;;;;;5.88;100.00;92398.91;5068506;28;20381;-70
2023/01/16 11:03:42;;;;;;;22.45;11.85;;;;;;;5.86;100.00;92403.41;5068695;28;20084;-70
2023/01/16 11:06:14;;;;;;;28.00;12.73;;;;;;;5.83;100.00;92406.38;5069019;28;20048;-70
2023/01/16 11:08:42;;;;;;;24.15;12.35;;;;;;;5.81;100.00;92406.56;5068447;28;20048;-70
2023/01/16 11:19:30;;;;;;;15.07;9.35;;;;;;;5.78;100.00;92431.69;5052990;28;20047;-70
2023/01/16 11:22:05;;;;;;;24.63;12.05;;;;;;;5.77;100.00;92423.25;5068723;28;20070;-70
2023/01/16 11:24:34;;;;;;;18.15;11.25;;;;;;;5.87;100.00;92415.97;5072856;28;20047;-70
2023/01/16 11:27:06;;;;;;;24.27;13.82;;;;;;;5.97;100.00;92409.69;5071110;28;20865;-71
2023/01/16 11:29:49;;;;;;;28.00;14.73;;;;;;;6.10;100.00;92409.66;5072828;28;20040;-70
2023/01/16 11:32:17;;;;;;;34.20;17.35;;;;;;;6.18;100.00;92408.66;5072570;28;20401;-70
2023/01/16 11:34:48;;;;;;;32.03;15.90;;;;;;;6.25;100.00;92411.19;5072826;28;20508;-70
2023/01/16 11:37:18;;;;;;;23.25;12.43;;;;;;;6.28;100.00;92409.00;5073764;28;20115;-70
2023/01/16 11:39:50;;;;;;;88.45;52.75;;;;;;;6.36;100.00;92410.53;5073030;28;20119;-70
2023/01/16 11:48:22;;;;;;;14.13;9.70;;;;;;;6.60;100.00;92387.84;5071932;28;20083;-70
2023/01/16 11:50:50;;;;;;;18.17;14.55;;;;;;;6.69;100.00;92375.63;5072063;28;20044;-69
2023/01/16 11:53:17;;;;;;;13.13;9.60;;;;;;;6.65;100.00;92366.81;5071785;28;20048;-70
2023/01/16 11:56:03;;;;;;;10.60;7.68;;;;;;;6.74;100.00;92377.53;5071872;28;20098;-70
2023/01/16 11:58:40;;;;;;;13.70;9.60;;;;;;;6.81;100.00;92366.31;5071712;28;20052;-70
2023/01/16 12:01:13;;;;;;;13.25;8.73;;;;;;;6.75;100.00;92367.13;5071912;28;20055;-70
2023/01/16 12:03:55;;;;;;;20.45;16.85;;;;;;;6.87;100.00;92357.03;5071843;28;20040;-70
2023/01/16 12:06:37;;;;;;;16.15;12.63;;;;;;;6.79;100.00;92339.41;5071603;28;20052;-70
2023/01/16 12:09:26;;;;;;;12.32;10.63;;;;;;;6.83;100.00;92345.69;5059790;28;20044;-70
2023/01/16 12:14:56;;;;;;;15.18;11.43;;;;;;;6.85;100.00;92330.94;5071136;28;20053;-70
2023/01/16 12:17:32;;;;;;;9.57;7.40;;;;;;;6.72;100.00;92303.75;5070759;28;20044;-70
2023/01/16 12:20:13;;;;;;;7.85;6.00;;;;;;;6.72;100.00;92305.50;5071559;28;20102;-70
2023/01/16 12:22:57;;;;;;;9.88;6.55;;;;;;;6.67;100.00;92290.84;5048293;28;20456;-70
2023/01/16 12:25:37;;;;;;;9.13;7.50;;;;;;;6.68;100.00;92279.63;5066731;28;20086;-70
2023/01/16 12:28:16;;;;;;;11.77;8.10;;;;;;;6.73;100.00;92271.34;5064483;28;20143;-70
2023/01/16 12:31:16;;;;;;;13.23;6.90;;;;;;;6.65;100.00;92269.81;5070791;28;20040;-70
2023/01/16 12:33:50;;;;;;;10.23;6.88;;;;;;;6.70;100.00;92274.31;5070684;28;20493;-70
2023/01/16 12:36:25;;;;;;;11.45;7.18;;;;;;;6.70;100.00;92270.00;5070913;28;20044;-70